TimeEDT,TemperatureF,Dew PointF,Humidity,Sea Level PressureIn,VisibilityMPH,Wind Direction,Wind SpeedMPH,Gust SpeedMPH,PrecipitationIn,Events,Conditions,WindDirDegrees,DateUTC
12:53 AM,75.9,70.0,82,30.03,10.0,Calm,Calm,-,N/A,,Clear,0,2013-09-10 04:53:00
1:53 AM,77.0,70.0,79,30.03,9.0,Calm,Calm,-,N/A,,Clear,0,2013-09-10 05:53:00
2:53 AM,73.9,70.0,87,30.04,7.0,Calm,Calm,-,N/A,,Partly Cloudy,0,2013-09-10 06:53:00
3:53 AM,73.9,70.0,87,30.04,7.0,Calm,Calm,-,N/A,,Mostly Cloudy,0,2013-09-10 07:53:00
4:53 AM,73.0,70.0,90,30.06,6.0,Calm,Calm,-,N/A,,Overcast,0,2013-09-10 08:53:00
5:53 AM,73.9,71.1,91,30.07,6.0,Calm,Calm,-,N/A,,Overcast,0,2013-09-10 09:53:00
6:53 AM,73.0,71.1,93,30.09,6.0,Calm,Calm,-,N/A,,Partly Cloudy,0,2013-09-10 10:53:00
7:53 AM,73.9,71.1,91,30.11,5.0,Calm,Calm,-,N/A,,Scattered Clouds,0,2013-09-10 11:53:00
8:53 AM,80.1,72.0,76,30.12,6.0,Variable,3.5,-,N/A,,Haze,0,2013-09-10 12:53:00
9:53 AM,82.9,72.0,69,30.13,7.0,Variable,4.6,-,N/A,,Scattered Clouds,0,2013-09-10 13:53:00
10:53 AM,84.9,72.0,65,30.12,8.0,WSW,5.8,-,N/A,,Clear,250,2013-09-10 14:53:00
11:53 AM,90.0,73.9,59,30.12,8.0,Variable,5.8,-,N/A,,Clear,0,2013-09-10 15:53:00
12:53 PM,91.9,73.0,54,30.11,9.0,Variable,6.9,-,N/A,,Clear,0,2013-09-10 16:53:00
1:53 PM,93.9,73.9,52,30.11,8.0,SW,10.4,-,N/A,,Clear,230,2013-09-10 17:53:00
2:53 PM,95.0,72.0,47,30.09,9.0,Variable,6.9,-,N/A,,Partly Cloudy,0,2013-09-10 18:53:00
3:53 PM,93.9,73.0,51,30.07,8.0,Variable,6.9,-,N/A,,Partly Cloudy,0,2013-09-10 19:53:00
4:38 PM,93.2,73.4,52,30.09,8.0,Variable,4.6,-,N/A,Thunderstorm,Partly Cloudy,0,2013-09-10 20:38:00
4:53 PM,95.0,73.0,49,30.07,9.0,SW,8.1,-,N/A,Thunderstorm,Mostly Cloudy,220,2013-09-10 20:53:00
5:33 PM,89.6,71.6,55,30.08,8.0,SW,4.6,-,N/A,,Scattered Clouds,220,2013-09-10 21:33:00
5:43 PM,89.6,71.6,55,30.08,8.0,SW,5.8,-,N/A,Thunderstorm,Partly Cloudy,230,2013-09-10 21:43:00
5:53 PM,89.1,72.0,57,30.07,8.0,Variable,3.5,-,N/A,Thunderstorm,Clear,0,2013-09-10 21:53:00
6:18 PM,86.0,71.6,62,30.09,10.0,West,5.8,-,N/A,,Clear,280,2013-09-10 22:18:00
6:53 PM,84.9,71.1,63,30.08,9.0,Variable,3.5,-,N/A,,Partly Cloudy,0,2013-09-10 22:53:00
7:53 PM,82.9,70.0,65,30.10,10.0,Variable,3.5,-,N/A,,Partly Cloudy,0,2013-09-10 23:53:00
8:53 PM,79.0,71.1,77,30.12,10.0,Calm,Calm,-,N/A,,Clear,0,2013-09-11 00:53:00
9:53 PM,77.0,70.0,79,30.13,10.0,Calm,Calm,-,N/A,,Clear,0,2013-09-11 01:53:00
10:53 PM,75.9,69.1,79,30.14,10.0,West,3.5,-,N/A,,Clear,280,2013-09-11 02:53:00
11:53 PM,73.9,69.1,85,30.14,10.0,Calm,Calm,-,N/A,,Clear,0,2013-09-11 03:53:00